createdAt,value
2019-01-03T00:02:06.129Z,-2.40
2019-01-03T00:04:51.997Z,-2.20
2019-01-03T00:07:22.716Z,-2.30
2019-01-03T00:09:54.371Z,-2.60
2019-01-03T00:12:30.441Z,-2.60
2019-01-03T00:15:00.548Z,-2.00
2019-01-03T00:17:33.551Z,-2.50
2019-01-03T00:20:04.573Z,-2.20
2019-01-03T00:22:40.387Z,-2.30
2019-01-03T00:25:19.272Z,-2.40
2019-01-03T00:27:49.376Z,-2.10
2019-01-03T00:30:34.447Z,-2.70
2019-01-03T00:33:07.218Z,-2.70
2019-01-03T00:35:37.369Z,-2.70
2019-01-03T00:38:25.405Z,-2.80
2019-01-03T00:40:58.809Z,-2.70
2019-01-03T00:43:29.004Z,-2.80
2019-01-03T00:46:02.077Z,-2.70
2019-01-03T00:48:41.189Z,-2.80
2019-01-03T00:51:23.322Z,-2.90
2019-01-03T00:54:02.319Z,-2.90
2019-01-03T00:56:41.310Z,-2.80
2019-01-03T00:59:11.459Z,-2.90
2019-01-03T01:07:22.193Z,-3.00
2019-01-03T01:10:07.471Z,-2.90
2019-01-03T01:12:44.671Z,-3.00
2019-01-03T01:15:23.499Z,-3.20
2019-01-03T01:17:59.498Z,-3.20
2019-01-03T01:20:44.787Z,-3.00
2019-01-03T01:23:20.842Z,-3.10
2019-01-03T01:26:08.861Z,-3.10
2019-01-03T01:28:47.797Z,-3.20
2019-01-03T01:31:37.541Z,-2.90
2019-01-03T01:34:09.194Z,-2.80
2019-01-03T01:36:43.014Z,-2.30
2019-01-03T01:39:15.859Z,-2.20
2019-01-03T01:44:19.171Z,-2.00
2019-01-03T01:46:49.371Z,-2.00
2019-01-03T01:49:25.419Z,-1.90
2019-01-03T01:51:55.555Z,-1.80
2019-01-03T01:54:28.053Z,-1.80
2019-01-03T01:57:04.110Z,-1.80
2019-01-03T01:59:49.008Z,-1.70
2019-01-03T02:02:21.905Z,-1.70
2019-01-03T02:05:03.687Z,-1.70
2019-01-03T02:07:49.908Z,-1.60
2019-01-03T02:10:22.784Z,-1.50
2019-01-03T02:13:01.667Z,-1.50
2019-01-03T02:15:31.880Z,-1.50
2019-01-03T02:18:20.115Z,-1.40
2019-01-03T02:20:56.029Z,-1.40
2019-01-03T02:23:42.182Z,-1.40
2019-01-03T02:26:28.005Z,-1.40
2019-01-03T02:28:58.874Z,-1.50
2019-01-03T02:31:45.128Z,-1.50
2019-01-03T02:34:31.215Z,-1.40
2019-01-03T02:37:17.580Z,-1.40
2019-01-03T02:39:49.266Z,-1.50
2019-01-03T02:42:31.216Z,-1.50
2019-01-03T02:45:13.247Z,-1.50
2019-01-03T02:47:46.450Z,-1.50
2019-01-03T02:50:16.559Z,-1.60
2019-01-03T02:52:52.650Z,-1.70
2019-01-03T02:55:38.750Z,-1.90
2019-01-03T02:58:09.164Z,-2.10
2019-01-03T03:00:45.035Z,-2.20
2019-01-03T03:03:15.216Z,-2.30
2019-01-03T03:05:51.263Z,-2.40
2019-01-03T03:08:21.392Z,-2.50
2019-01-03T03:10:51.520Z,-2.60
2019-01-03T03:13:33.688Z,-2.70
2019-01-03T03:16:12.968Z,-2.80
2019-01-03T03:18:43.128Z,-2.80
2019-01-03T03:21:22.379Z,-2.80
2019-01-03T03:24:07.150Z,-2.80
2019-01-03T03:26:53.578Z,-2.80
2019-01-03T03:29:32.876Z,-2.70
2019-01-03T03:32:18.786Z,-2.70
2019-01-03T03:34:54.484Z,-2.70
2019-01-03T03:37:30.718Z,-2.70
2019-01-03T03:40:03.558Z,-2.70
2019-01-03T03:42:42.481Z,-2.70
2019-01-03T03:45:18.622Z,-2.70
2019-01-03T03:48:00.765Z,-2.60
2019-01-03T03:50:36.955Z,-2.50
2019-01-03T03:53:23.579Z,-2.50
2019-01-03T03:56:02.784Z,-2.50
2019-01-03T03:58:50.739Z,-2.40
2019-01-03T04:01:32.651Z,-2.30
2019-01-03T04:04:05.291Z,-2.30
2019-01-03T04:06:53.591Z,-2.30
2019-01-03T04:09:26.260Z,-2.30
2019-01-03T04:12:11.391Z,-2.30
2019-01-03T04:14:41.512Z,-2.30
2019-01-03T04:17:17.552Z,-2.20
2019-01-03T04:19:47.719Z,-2.20
2019-01-03T04:22:29.572Z,-2.20
2019-01-03T04:24:59.741Z,-2.10
2019-01-03T04:27:35.357Z,-2.10
2019-01-03T04:30:14.531Z,-2.10
2019-01-03T04:33:00.485Z,-2.00
2019-01-03T04:35:39.627Z,-2.00
2019-01-03T04:38:24.456Z,-2.20
2019-01-03T04:41:00.510Z,-2.20
2019-01-03T04:43:30.726Z,-2.10
2019-01-03T04:46:03.765Z,-2.00
2019-01-03T04:48:36.525Z,-2.00
2019-01-03T04:51:22.729Z,-2.00
2019-01-03T04:54:05.002Z,-2.00
2019-01-03T04:56:47.330Z,-1.90
2019-01-03T04:59:33.783Z,-2.00
2019-01-03T05:02:18.027Z,-2.10
2019-01-03T05:05:04.141Z,-2.20
2019-01-03T05:07:49.362Z,-2.20
2019-01-03T05:10:19.570Z,-2.20
2019-01-03T05:12:55.748Z,-2.20
2019-01-03T05:15:31.901Z,-2.20
2019-01-03T05:18:02.053Z,-2.30
2019-01-03T05:20:41.097Z,-2.40
2019-01-03T05:23:20.038Z,-2.60
2019-01-03T05:25:52.789Z,-2.60
2019-01-03T05:28:37.545Z,-2.70
2019-01-03T05:31:07.641Z,-2.80
2019-01-03T05:33:40.566Z,-2.90
2019-01-03T05:36:16.451Z,-2.90
2019-01-03T05:38:52.438Z,-2.90
2019-01-03T05:41:25.499Z,-3.00
2019-01-03T05:43:58.445Z,-3.00
2019-01-03T05:46:35.311Z,-3.10
2019-01-03T05:49:21.405Z,-3.10
2019-01-03T05:51:54.107Z,-2.80
2019-01-03T05:54:24.295Z,-3.10
2019-01-03T05:56:57.275Z,-3.00
2019-01-03T05:59:36.375Z,-2.90
2019-01-03T06:02:15.382Z,-2.90
2019-01-03T06:04:45.506Z,-2.90
2019-01-03T06:07:21.399Z,-2.80
2019-01-03T06:10:07.492Z,-2.90
2019-01-03T06:12:43.232Z,-2.90
2019-01-03T06:15:22.050Z,-2.90
2019-01-03T06:18:08.404Z,-2.90
2019-01-03T06:20:41.409Z,-2.90
2019-01-03T06:23:17.205Z,-3.00
2019-01-03T06:26:03.080Z,-3.00
2019-01-03T06:28:33.268Z,-3.00
2019-01-03T06:31:06.076Z,-3.00
2019-01-03T06:33:52.436Z,-3.10
2019-01-03T06:36:22.525Z,-3.10
2019-01-03T06:38:58.173Z,-3.10
2019-01-03T06:41:37.127Z,-3.10
2019-01-03T06:44:19.144Z,-3.20
2019-01-03T06:46:49.314Z,-3.20
2019-01-03T06:49:37.637Z,-3.20
2019-01-03T06:52:19.818Z,-3.10
2019-01-03T06:54:55.958Z,-3.10
2019-01-03T06:57:32.152Z,-3.10
2019-01-03T07:00:14.582Z,-3.10
2019-01-03T07:02:47.682Z,-3.10
2019-01-03T07:05:26.676Z,-3.10
2019-01-03T07:08:08.590Z,-3.10
2019-01-03T07:10:54.474Z,-3.00
2019-01-03T07:13:40.883Z,-2.90
2019-01-03T07:16:22.566Z,-2.80
2019-01-03T07:18:58.396Z,-2.80
2019-01-03T07:21:35.381Z,-2.70
2019-01-03T07:24:21.853Z,-2.70
2019-01-03T07:26:52.732Z,-2.70
2019-01-03T07:29:22.945Z,-2.70
2019-01-03T07:31:59.850Z,-2.60
2019-01-03T07:34:46.170Z,-2.40
2019-01-03T07:37:34.298Z,-2.30
2019-01-03T07:40:22.521Z,-2.20
2019-01-03T07:43:04.402Z,-2.20
2019-01-03T07:45:40.396Z,-2.10
2019-01-03T07:48:10.567Z,-2.20
2019-01-03T07:50:55.692Z,-2.10
2019-01-03T07:53:41.895Z,-2.20
2019-01-03T07:56:28.247Z,-2.10
2019-01-03T07:59:01.167Z,-2.10
2019-01-03T08:01:31.285Z,-2.10
2019-01-03T08:04:10.307Z,-2.00
2019-01-03T08:06:56.642Z,-1.90
2019-01-03T08:09:26.833Z,-1.80
2019-01-03T08:11:56.936Z,-1.70
2019-01-03T08:14:27.073Z,-1.70
2019-01-03T08:17:09.183Z,-1.60
2019-01-03T08:19:42.225Z,-1.50
2019-01-03T08:22:24.397Z,-1.50
2019-01-03T08:24:54.494Z,-1.50
2019-01-03T08:27:27.547Z,-1.50
2019-01-03T08:29:57.639Z,-1.60
2019-01-03T08:32:27.745Z,-1.60
2019-01-03T08:34:57.876Z,-1.80
2019-01-03T08:37:39.579Z,-1.80
2019-01-03T08:40:18.697Z,-1.80
2019-01-03T08:43:03.662Z,-1.80
2019-01-03T08:45:50.325Z,-1.80
2019-01-03T08:48:26.389Z,-1.80
2019-01-03T08:51:12.215Z,-1.70
2019-01-03T08:53:54.118Z,-1.70
2019-01-03T08:56:40.259Z,-1.70
2019-01-03T08:59:16.337Z,-1.70
2019-01-03T09:01:46.433Z,-1.60
2019-01-03T09:04:16.639Z,-1.60
2019-01-03T09:06:58.529Z,-1.50
2019-01-03T09:09:44.542Z,-1.50
2019-01-03T09:12:17.394Z,-1.50
2019-01-03T09:14:53.447Z,-1.50
2019-01-03T09:17:26.259Z,-1.40
2019-01-03T09:19:56.359Z,-1.40
2019-01-03T09:22:42.698Z,-1.30
2019-01-03T09:25:15.461Z,-1.30
2019-01-03T09:28:03.495Z,-1.20
2019-01-03T09:30:33.595Z,-1.20
2019-01-03T09:33:12.315Z,-1.10
2019-01-03T09:35:42.438Z,-1.00
2019-01-03T09:38:24.329Z,-0.90
2019-01-03T09:41:00.476Z,-0.90
2019-01-03T09:43:30.608Z,-0.90
2019-01-03T09:45:59.076Z,-0.80
2019-01-03T09:48:27.612Z,-0.70
2019-01-03T09:50:56.358Z,-0.60
2019-01-03T09:53:24.914Z,-0.60
2019-01-03T09:55:53.359Z,-0.60
2019-01-03T09:58:21.860Z,-0.50
2019-01-03T10:00:50.314Z,-0.60
2019-01-03T10:03:18.885Z,-0.60
2019-01-03T10:05:47.346Z,-0.50
2019-01-03T10:08:19.569Z,-0.50
2019-01-03T10:10:46.001Z,-0.50
2019-01-03T10:13:14.493Z,-0.40
2019-01-03T10:15:42.963Z,-0.40
2019-01-03T10:18:11.459Z,-0.30
2019-01-03T10:20:39.961Z,-0.30
2019-01-03T10:23:08.414Z,-0.30
2019-01-03T10:25:36.899Z,-0.30
2019-01-03T10:28:05.393Z,-0.30
2019-01-03T10:30:33.852Z,-0.30
2019-01-03T10:33:02.362Z,-0.30
2019-01-03T10:35:30.815Z,-0.30
2019-01-03T10:37:59.277Z,-0.20
2019-01-03T10:40:27.743Z,-0.20
2019-01-03T10:42:57.126Z,-0.20
2019-01-03T10:45:25.611Z,-0.20
2019-01-03T10:47:54.088Z,-0.10
2019-01-03T10:50:22.586Z,0.00
2019-01-03T10:52:51.051Z,0.00
2019-01-03T10:55:19.572Z,-0.10
2019-01-03T10:57:48.124Z,-0.10
2019-01-03T11:00:16.654Z,-0.10
2019-01-03T11:02:45.120Z,-0.10
2019-01-03T11:05:13.628Z,-0.40
2019-01-03T11:07:42.124Z,-0.30
2019-01-03T11:10:10.602Z,-0.40
2019-01-03T11:12:39.164Z,-0.30
2019-01-03T11:15:08.073Z,-0.30
2019-01-03T11:17:36.537Z,-0.20
2019-01-03T11:20:05.952Z,-0.20
2019-01-03T11:22:34.421Z,-0.10
2019-01-03T11:25:03.073Z,-0.10
2019-01-03T11:27:31.569Z,-0.10
2019-01-03T11:30:00.090Z,-0.10
2019-01-03T11:32:28.602Z,-0.20
2019-01-03T11:34:57.069Z,-0.30
2019-01-03T11:37:25.553Z,-0.30
2019-01-03T11:39:54.013Z,-0.20
2019-01-03T11:42:22.470Z,-0.20
2019-01-03T11:44:51.023Z,-0.20
2019-01-03T11:47:19.487Z,-0.20
2019-01-03T11:49:47.969Z,-0.10
2019-01-03T11:52:16.421Z,-0.30
2019-01-03T11:54:44.913Z,-0.10
2019-01-03T11:57:13.545Z,-0.10
2019-01-03T11:59:42.105Z,-0.10
2019-01-03T12:02:10.571Z,-0.10
2019-01-03T12:04:39.073Z,0.00
2019-01-03T12:07:07.676Z,-0.10
2019-01-03T12:09:36.137Z,-0.10
2019-01-03T12:12:04.883Z,-1.20
2019-01-03T12:14:33.347Z,-0.10
2019-01-03T12:17:01.908Z,0.00
2019-01-03T12:19:30.349Z,0.00
2019-01-03T12:21:58.829Z,0.00
2019-01-03T12:24:30.574Z,0.10
2019-01-03T12:26:57.469Z,0.10
2019-01-03T12:29:25.964Z,0.10
2019-01-03T12:31:54.509Z,0.10
2019-01-03T12:34:22.995Z,0.20
2019-01-03T12:36:51.487Z,0.20
2019-01-03T12:39:20.055Z,0.20
2019-01-03T12:41:48.505Z,0.20
2019-01-03T12:44:16.985Z,0.20
2019-01-03T12:46:45.519Z,0.10
2019-01-03T12:49:14.071Z,0.10
2019-01-03T12:51:42.616Z,0.10
2019-01-03T12:54:11.149Z,0.10
2019-01-03T12:56:39.646Z,0.00
2019-01-03T12:59:08.213Z,0.00
2019-01-03T13:01:36.733Z,0.00
2019-01-03T13:04:05.289Z,0.00
2019-01-03T13:06:33.823Z,0.00
2019-01-03T13:09:02.405Z,-0.10
2019-01-03T13:11:30.944Z,-0.10
2019-01-03T13:13:59.400Z,-0.10
2019-01-03T13:16:27.888Z,-0.10
2019-01-03T13:18:56.403Z,-0.10
2019-01-03T13:21:24.976Z,-0.20
2019-01-03T13:23:53.483Z,-0.10
2019-01-03T13:26:22.061Z,-0.10
2019-01-03T13:28:50.580Z,-0.10
2019-01-03T13:31:19.054Z,-0.10
2019-01-03T13:33:47.631Z,-0.10
2019-01-03T13:36:16.151Z,-0.10
2019-01-03T13:38:44.654Z,0.00
2019-01-03T13:41:13.210Z,0.20
2019-01-03T13:43:41.663Z,0.40
2019-01-03T13:46:10.139Z,0.30
2019-01-03T13:48:38.652Z,0.10
2019-01-03T13:51:07.234Z,-0.10
2019-01-03T13:53:35.741Z,0.00
2019-01-03T13:56:04.366Z,-0.10
2019-01-03T13:58:32.926Z,-0.20
2019-01-03T14:01:01.465Z,-0.10
2019-01-03T14:03:30.041Z,-0.20
2019-01-03T14:05:58.574Z,-0.20
2019-01-03T14:08:27.642Z,-0.20
2019-01-03T14:10:57.099Z,-0.20
2019-01-03T14:13:25.662Z,-0.30
2019-01-03T14:15:54.246Z,-0.30
2019-01-03T14:18:22.838Z,-0.40
2019-01-03T14:20:51.390Z,-0.30
2019-01-03T14:23:20.025Z,-0.30
2019-01-03T14:25:48.545Z,-0.30
2019-01-03T14:28:17.107Z,-0.30
2019-01-03T14:30:45.705Z,-0.30
2019-01-03T14:33:14.202Z,-0.40
2019-01-03T14:35:42.764Z,-0.40
2019-01-03T14:38:11.305Z,-0.30
2019-01-03T14:40:39.885Z,-0.40
2019-01-03T14:43:08.422Z,-0.40
2019-01-03T14:45:37.454Z,-0.30
2019-01-03T14:48:06.054Z,-0.40
2019-01-03T14:50:34.604Z,-0.40
2019-01-03T14:53:03.126Z,-0.40
2019-01-03T14:55:31.623Z,-0.40
2019-01-03T14:58:00.116Z,-0.40
2019-01-03T15:00:29.165Z,-0.40
2019-01-03T15:02:57.975Z,-0.40
2019-01-03T15:05:27.558Z,-0.40
2019-01-03T15:07:56.097Z,-0.40
2019-01-03T15:10:24.573Z,-0.40
2019-01-03T15:12:53.213Z,-0.40
2019-01-03T15:15:21.791Z,-0.30
2019-01-03T15:17:50.391Z,-0.40
2019-01-03T15:20:19.586Z,-0.60
2019-01-03T15:25:16.308Z,-0.50
2019-01-03T15:27:44.827Z,-0.30
2019-01-03T15:30:13.487Z,-0.50
2019-01-03T15:35:10.221Z,-0.20
2019-01-03T15:37:38.793Z,-0.40
2019-01-03T15:40:07.860Z,-0.40
2019-01-03T15:42:36.502Z,-0.60
2019-01-03T15:45:06.914Z,-0.30
2019-01-03T15:47:35.441Z,-0.50
2019-01-03T15:50:04.921Z,-0.50
2019-01-03T15:52:33.523Z,-0.80
2019-01-03T15:55:03.969Z,-0.50
2019-01-03T15:57:32.341Z,-0.50
2019-01-03T16:00:00.921Z,-0.20
2019-01-03T16:02:31.363Z,-0.60
2019-01-03T16:04:59.607Z,-0.40
2019-01-03T16:07:28.061Z,-0.60
2019-01-03T16:12:24.757Z,-0.60
2019-01-03T16:14:53.264Z,-0.50
2019-01-03T16:17:21.922Z,-0.60
2019-01-03T16:19:50.512Z,-0.50
2019-01-03T16:22:21.397Z,-0.50
2019-01-03T16:24:49.978Z,-0.60
2019-01-03T16:27:18.490Z,-0.50
2019-01-03T16:29:47.041Z,-0.50
2019-01-03T16:32:15.560Z,-0.50
2019-01-03T16:34:44.086Z,-0.50
2019-01-03T16:37:12.608Z,-0.30
2019-01-03T16:42:11.223Z,-0.20
2019-01-03T16:44:39.827Z,-0.60
2019-01-03T16:47:09.710Z,0.40
2019-01-03T16:49:38.876Z,-0.40
2019-01-03T16:52:07.414Z,-0.60
2019-01-03T16:57:05.872Z,-0.50
2019-01-03T17:02:06.135Z,0.00
2019-01-03T17:07:03.009Z,-0.60
2019-01-03T17:09:31.592Z,-0.50
2019-01-03T17:12:00.182Z,-0.40
2019-01-03T17:14:28.772Z,-0.40
2019-01-03T17:16:57.370Z,-0.70
2019-01-03T17:19:28.264Z,-1.10
2019-01-03T17:24:26.675Z,-0.60
2019-01-03T17:26:55.329Z,-0.30
2019-01-03T17:29:25.258Z,-0.40
2019-01-03T17:31:55.368Z,-0.60
2019-01-03T17:34:26.259Z,-0.50
2019-01-03T17:36:54.865Z,-0.50
2019-01-03T17:39:23.553Z,-0.60
2019-01-03T17:41:52.072Z,-0.40
2019-01-03T17:44:20.837Z,-0.50
2019-01-03T17:46:50.705Z,-0.40
2019-01-03T17:49:21.388Z,-0.60
2019-01-03T17:51:51.950Z,-0.10
2019-01-03T17:54:20.456Z,-0.40
2019-01-03T17:56:49.069Z,-0.50
2019-01-03T17:59:19.252Z,-0.50
2019-01-03T18:04:16.088Z,-0.50
2019-01-03T18:06:45.929Z,-0.90
2019-01-03T18:09:14.430Z,-0.40
2019-01-03T18:11:45.188Z,-0.40
2019-01-03T18:14:13.813Z,-0.70
2019-01-03T18:16:42.349Z,-0.40
2019-01-03T18:19:11.717Z,-0.60
2019-01-03T18:21:41.207Z,-0.40
2019-01-03T18:24:11.465Z,-0.40
2019-01-03T18:26:39.994Z,-0.40
2019-01-03T18:29:08.804Z,-0.90
2019-01-03T18:31:37.393Z,-0.40
2019-01-03T18:34:07.579Z,-0.50
2019-01-03T18:36:36.235Z,-0.40
2019-01-03T18:39:09.489Z,-0.40
2019-01-03T18:41:38.604Z,-0.50
2019-01-03T18:44:08.863Z,-0.50
2019-01-03T18:46:37.704Z,-0.40
2019-01-03T18:49:07.595Z,-0.60
2019-01-03T18:51:36.149Z,-0.40
2019-01-03T18:54:07.595Z,-0.60
2019-01-03T18:56:37.028Z,-0.80
2019-01-03T19:06:34.367Z,-0.60
2019-01-03T19:09:06.155Z,-0.60
2019-01-03T19:11:36.471Z,-0.70
2019-01-03T19:14:06.731Z,-0.50
2019-01-03T19:16:38.116Z,-0.70
2019-01-03T19:19:08.252Z,-0.50
2019-01-03T19:21:36.902Z,-0.70
2019-01-03T19:24:06.230Z,-0.50
2019-01-03T19:26:34.843Z,-0.40
2019-01-03T19:29:04.751Z,-0.50
2019-01-03T19:31:33.535Z,-0.50
2019-01-03T19:34:02.214Z,-0.60
2019-01-03T19:36:30.789Z,-1.00
2019-01-03T19:39:01.001Z,-0.80
2019-01-03T19:41:29.597Z,-0.70
2019-01-03T19:43:58.151Z,-0.60
2019-01-03T19:46:32.116Z,-0.60
2019-01-03T19:49:03.418Z,-0.70
2019-01-03T19:51:32.989Z,-0.50
2019-01-03T19:56:30.493Z,-0.70
2019-01-03T20:01:27.876Z,-0.50
2019-01-03T20:04:00.178Z,-0.70
2019-01-03T20:06:28.839Z,-0.50
2019-01-03T20:08:58.074Z,-0.40
2019-01-03T20:16:27.074Z,-0.50
2019-01-03T20:18:55.879Z,-0.40
2019-01-03T20:21:24.468Z,-0.40
2019-01-03T20:23:53.049Z,-0.50
2019-01-03T20:26:23.142Z,-0.40
2019-01-03T20:28:54.441Z,-0.50
2019-01-03T20:33:56.743Z,-0.60
2019-01-03T20:36:25.714Z,-0.50
2019-01-03T20:38:54.238Z,-0.50
2019-01-03T20:41:22.908Z,-0.20
2019-01-03T20:46:21.190Z,-0.50
2019-01-03T20:48:49.880Z,-0.60
2019-01-03T20:51:18.578Z,-0.40
2019-01-03T20:53:47.276Z,-0.60
2019-01-03T20:58:44.934Z,-0.70
2019-01-03T21:01:15.053Z,-0.50
2019-01-03T21:06:14.399Z,-0.60
2019-01-03T21:08:45.865Z,-0.30
2019-01-03T21:13:44.554Z,-0.40
2019-01-03T21:16:16.153Z,-0.40
2019-01-03T21:18:46.046Z,-0.40
2019-01-03T21:21:16.492Z,-0.50
2019-01-03T21:23:51.692Z,-0.50
2019-01-03T21:26:23.293Z,-0.70
2019-01-03T21:28:53.680Z,-0.60
2019-01-03T21:31:22.369Z,-0.50
2019-01-03T21:33:52.645Z,-0.60
2019-01-03T21:36:22.259Z,-0.60
2019-01-03T21:38:50.931Z,-0.80
2019-01-03T21:41:22.474Z,-0.70
2019-01-03T21:43:52.037Z,-0.50
2019-01-03T21:46:20.686Z,-0.60
2019-01-03T21:48:56.006Z,-0.60
2019-01-03T21:51:27.720Z,-0.20
2019-01-03T21:53:56.368Z,-1.20
2019-01-03T21:56:25.006Z,-0.70
2019-01-03T21:58:55.430Z,-0.70
2019-01-03T22:03:53.370Z,-0.70
2019-01-03T22:06:21.933Z,-1.00
2019-01-03T22:08:51.697Z,-1.00
2019-01-03T22:11:20.307Z,-0.60
2019-01-03T22:16:17.486Z,0.00
2019-01-03T22:18:46.142Z,-0.80
2019-01-03T22:21:14.856Z,-0.50
2019-01-03T22:23:43.795Z,-0.90
2019-01-03T22:26:13.287Z,-0.60
2019-01-03T22:28:43.051Z,-0.80
2019-01-03T22:33:40.218Z,-1.00
2019-01-03T22:36:08.821Z,-1.00
2019-01-03T22:38:38.441Z,-0.90
2019-01-03T22:41:07.040Z,-0.80
2019-01-03T22:43:35.673Z,-0.80
2019-01-03T22:48:34.129Z,-0.60
2019-01-03T22:51:02.773Z,-0.90
2019-01-03T22:53:31.433Z,-0.80
2019-01-03T22:56:00.053Z,-1.00
2019-01-03T22:58:28.622Z,-0.80
2019-01-03T23:00:57.337Z,-0.60
2019-01-03T23:03:26.055Z,-0.70
2019-01-03T23:05:54.525Z,-0.70
2019-01-03T23:08:23.127Z,-0.70
2019-01-03T23:10:52.366Z,-0.70
2019-01-03T23:13:20.944Z,-0.70
2019-01-03T23:15:49.570Z,-0.80
2019-01-03T23:20:47.692Z,-0.90
2019-01-03T23:23:16.349Z,-0.90
2019-01-03T23:25:44.911Z,-0.80
2019-01-03T23:30:41.607Z,-0.80
2019-01-03T23:33:10.157Z,-0.60
2019-01-03T23:35:38.737Z,-1.00
2019-01-03T23:38:07.253Z,-0.80
2019-01-03T23:43:04.129Z,-0.80
2019-01-03T23:45:32.877Z,-1.10
2019-01-03T23:48:01.419Z,-0.90
2019-01-03T23:50:31.059Z,-1.10
2019-01-03T23:52:59.616Z,-1.10
2019-01-03T23:55:29.934Z,-1.00
2019-01-03T23:57:58.614Z,-1.30
